sensor_id;sensor_type;location;lat;lon;timestamp;noise_LAeq;noise_LA_min;noise_LA_max;noise_LA01;noise_LA95
47109;Laerm;32856;51.422;6.794;2023-03-13T00:02:01;55.58;45.57;73.44;;
47109;Laerm;32856;51.422;6.794;2023-03-13T00:04:28;51.07;46.43;56.26;;
47109;Laerm;32856;51.422;6.794;2023-03-13T00:06:55;52.98;45.04;69.04;;
47109;Laerm;32856;51.422;6.794;2023-03-13T00:09:23;50.38;44.43;56.48;;
47109;Laerm;32856;51.422;6.794;2023-03-13T00:11:50;55.66;43.80;75.35;;
47109;Laerm;32856;51.422;6.794;2023-03-13T00:14:17;51.24;46.78;57.28;;
47109;Laerm;32856;51.422;6.794;2023-03-13T00:16:44;48.20;43.86;58.84;;
47109;Laerm;32856;51.422;6.794;2023-03-13T00:19:13;49.85;45.30;56.78;;
47109;Laerm;32856;51.422;6.794;2023-03-13T00:21:41;50.48;44.35;58.03;;
47109;Laerm;32856;51.422;6.794;2023-03-13T00:24:08;49.68;45.57;55.99;;
47109;Laerm;32856;51.422;6.794;2023-03-13T00:26:36;58.05;46.43;76.89;;
47109;Laerm;32856;51.422;6.794;2023-03-13T00:29:03;56.10;45.72;70.74;;
47109;Laerm;32856;51.422;6.794;2023-03-13T00:31:31;50.00;45.04;55.67;;
47109;Laerm;32856;51.422;6.794;2023-03-13T00:33:59;50.36;45.45;56.80;;
47109;Laerm;32856;51.422;6.794;2023-03-13T00:36:29;50.14;45.14;55.81;;
47109;Laerm;32856;51.422;6.794;2023-03-13T00:38:56;54.74;45.54;73.05;;
47109;Laerm;32856;51.422;6.794;2023-03-13T00:41:24;56.70;47.98;74.71;;
47109;Laerm;32856;51.422;6.794;2023-03-13T00:43:52;49.42;43.39;54.78;;
47109;Laerm;32856;51.422;6.794;2023-03-13T00:46:20;51.33;44.11;56.49;;
47109;Laerm;32856;51.422;6.794;2023-03-13T00:48:48;52.08;47.63;62.85;;
47109;Laerm;32856;51.422;6.794;2023-03-13T00:51:16;53.46;47.59;63.32;;
47109;Laerm;32856;51.422;6.794;2023-03-13T00:53:45;52.07;45.45;62.47;;
47109;Laerm;32856;51.422;6.794;2023-03-13T00:56:13;52.53;48.52;62.72;;
47109;Laerm;32856;51.422;6.794;2023-03-13T00:58:41;51.52;46.69;62.70;;
47109;Laerm;32856;51.422;6.794;2023-03-13T01:01:10;58.67;46.55;77.76;;
47109;Laerm;32856;51.422;6.794;2023-03-13T01:03:38;52.05;44.51;66.99;;
47109;Laerm;32856;51.422;6.794;2023-03-13T01:06:07;59.45;45.11;77.00;;
47109;Laerm;32856;51.422;6.794;2023-03-13T01:08:34;50.32;43.81;60.15;;
47109;Laerm;32856;51.422;6.794;2023-03-13T01:11:04;52.55;45.45;63.52;;
47109;Laerm;32856;51.422;6.794;2023-03-13T01:13:32;52.22;45.45;65.85;;
47109;Laerm;32856;51.422;6.794;2023-03-13T01:16:03;51.89;44.07;63.72;;
47109;Laerm;32856;51.422;6.794;2023-03-13T01:18:30;56.80;45.39;74.57;;
47109;Laerm;32856;51.422;6.794;2023-03-13T01:20:58;52.40;47.42;60.80;;
47109;Laerm;32856;51.422;6.794;2023-03-13T01:23:26;56.98;46.69;74.61;;
47109;Laerm;32856;51.422;6.794;2023-03-13T01:25:53;51.58;44.69;61.32;;
47109;Laerm;32856;51.422;6.794;2023-03-13T01:28:23;52.74;47.55;63.99;;
47109;Laerm;32856;51.422;6.794;2023-03-13T01:30:50;60.54;45.30;79.69;;
47109;Laerm;32856;51.422;6.794;2023-03-13T01:33:18;50.06;44.80;61.04;;
47109;Laerm;32856;51.422;6.794;2023-03-13T01:35:45;51.64;44.58;61.87;;
47109;Laerm;32856;51.422;6.794;2023-03-13T01:38:12;51.74;44.83;57.28;;
47109;Laerm;32856;51.422;6.794;2023-03-13T01:40:40;53.10;48.18;64.17;;
47109;Laerm;32856;51.422;6.794;2023-03-13T01:43:18;55.56;46.52;70.18;;
47109;Laerm;32856;51.422;6.794;2023-03-13T01:45:55;52.34;46.52;66.82;;
47109;Laerm;32856;51.422;6.794;2023-03-13T01:48:24;58.91;47.10;78.68;;
47109;Laerm;32856;51.422;6.794;2023-03-13T01:50:52;53.19;48.26;65.57;;
47109;Laerm;32856;51.422;6.794;2023-03-13T01:53:20;59.64;47.84;76.32;;
47109;Laerm;32856;51.422;6.794;2023-03-13T01:55:47;53.62;48.80;62.29;;
47109;Laerm;32856;51.422;6.794;2023-03-13T01:58:15;57.35;49.25;73.99;;
47109;Laerm;32856;51.422;6.794;2023-03-13T02:00:43;52.03;46.55;59.31;;
47109;Laerm;32856;51.422;6.794;2023-03-13T02:03:13;53.69;49.49;62.18;;
47109;Laerm;32856;51.422;6.794;2023-03-13T02:05:41;53.75;49.70;60.27;;
47109;Laerm;32856;51.422;6.794;2023-03-13T02:08:10;59.21;46.95;77.53;;
47109;Laerm;32856;51.422;6.794;2023-03-13T02:10:41;57.05;51.14;64.37;;
47109;Laerm;32856;51.422;6.794;2023-03-13T02:13:11;58.54;47.10;76.95;;
47109;Laerm;32856;51.422;6.794;2023-03-13T02:15:40;55.57;50.25;61.21;;
47109;Laerm;32856;51.422;6.794;2023-03-13T02:18:09;53.85;49.46;62.95;;
47109;Laerm;32856;51.422;6.794;2023-03-13T02:20:38;60.40;51.23;75.13;;
47109;Laerm;32856;51.422;6.794;2023-03-13T02:23:06;55.37;51.14;62.75;;
47109;Laerm;32856;51.422;6.794;2023-03-13T02:25:40;53.53;49.07;64.25;;
47109;Laerm;32856;51.422;6.794;2023-03-13T02:28:09;55.58;51.11;67.31;;
47109;Laerm;32856;51.422;6.794;2023-03-13T02:30:38;55.76;52.47;66.88;;
47109;Laerm;32856;51.422;6.794;2023-03-13T02:33:06;56.03;52.23;64.34;;
47109;Laerm;32856;51.422;6.794;2023-03-13T02:35:33;55.17;49.19;72.45;;
47109;Laerm;32856;51.422;6.794;2023-03-13T02:38:03;59.11;50.95;71.58;;
47109;Laerm;32856;51.422;6.794;2023-03-13T02:40:32;56.69;50.25;71.29;;
47109;Laerm;32856;51.422;6.794;2023-03-13T02:43:03;54.19;47.98;69.24;;
47109;Laerm;32856;51.422;6.794;2023-03-13T02:45:31;54.01;48.55;60.87;;
47109;Laerm;32856;51.422;6.794;2023-03-13T02:47:58;64.07;47.24;80.94;;
47109;Laerm;32856;51.422;6.794;2023-03-13T02:50:26;55.08;48.45;61.69;;
47109;Laerm;32856;51.422;6.794;2023-03-13T02:52:54;54.45;49.43;62.69;;
47109;Laerm;32856;51.422;6.794;2023-03-13T02:55:23;55.15;49.74;67.91;;
47109;Laerm;32856;51.422;6.794;2023-03-13T02:57:52;54.83;51.58;62.80;;
47109;Laerm;32856;51.422;6.794;2023-03-13T03:00:21;55.06;49.71;61.55;;
47109;Laerm;32856;51.422;6.794;2023-03-13T03:02:52;54.09;44.58;63.22;;
47109;Laerm;32856;51.422;6.794;2023-03-13T03:05:20;55.05;50.51;60.32;;
47109;Laerm;32856;51.422;6.794;2023-03-13T03:07:48;56.09;49.78;71.20;;
47109;Laerm;32856;51.422;6.794;2023-03-13T03:10:16;60.83;49.32;76.62;;
47109;Laerm;32856;51.422;6.794;2023-03-13T03:12:43;62.90;53.04;75.51;;
47109;Laerm;32856;51.422;6.794;2023-03-13T03:15:11;54.88;49.94;64.96;;
47109;Laerm;32856;51.422;6.794;2023-03-13T03:17:40;54.61;50.62;61.60;;
47109;Laerm;32856;51.422;6.794;2023-03-13T03:20:07;60.12;51.01;77.57;;
47109;Laerm;32856;51.422;6.794;2023-03-13T03:22:37;60.12;49.28;77.25;;
47109;Laerm;32856;51.422;6.794;2023-03-13T03:25:06;56.14;50.46;66.90;;
47109;Laerm;32856;51.422;6.794;2023-03-13T03:27:34;60.81;50.97;74.40;;
47109;Laerm;32856;51.422;6.794;2023-03-13T03:30:02;59.19;51.80;75.29;;
47109;Laerm;32856;51.422;6.794;2023-03-13T03:32:29;60.30;52.64;77.14;;
47109;Laerm;32856;51.422;6.794;2023-03-13T03:34:58;62.08;53.00;77.12;;
47109;Laerm;32856;51.422;6.794;2023-03-13T03:37:25;61.47;51.64;76.43;;
47109;Laerm;32856;51.422;6.794;2023-03-13T03:39:53;60.00;51.75;74.82;;
47109;Laerm;32856;51.422;6.794;2023-03-13T03:42:20;56.54;52.89;62.50;;
47109;Laerm;32856;51.422;6.794;2023-03-13T03:44:47;64.42;51.87;78.79;;
47109;Laerm;32856;51.422;6.794;2023-03-13T03:47:14;61.32;53.19;76.90;;
47109;Laerm;32856;51.422;6.794;2023-03-13T03:49:42;56.64;51.80;65.86;;
47109;Laerm;32856;51.422;6.794;2023-03-13T03:52:10;57.53;53.47;61.40;;
47109;Laerm;32856;51.422;6.794;2023-03-13T03:54:38;59.99;52.24;77.36;;
47109;Laerm;32856;51.422;6.794;2023-03-13T03:57:05;61.86;53.30;76.23;;
47109;Laerm;32856;51.422;6.794;2023-03-13T03:59:32;56.34;53.12;61.44;;
47109;Laerm;32856;51.422;6.794;2023-03-13T04:02:00;57.92;52.88;71.25;;
47109;Laerm;32856;51.422;6.794;2023-03-13T04:04:27;63.86;52.76;80.98;;
47109;Laerm;32856;51.422;6.794;2023-03-13T04:06:55;60.47;53.40;76.48;;
47109;Laerm;32856;51.422;6.794;2023-03-13T04:09:23;57.03;52.75;65.91;;
47109;Laerm;32856;51.422;6.794;2023-03-13T04:11:50;60.29;52.84;75.34;;
47109;Laerm;32856;51.422;6.794;2023-03-13T04:14:18;63.91;53.08;79.93;;
47109;Laerm;32856;51.422;6.794;2023-03-13T04:16:45;64.47;52.94;77.33;;
47109;Laerm;32856;51.422;6.794;2023-03-13T04:19:12;58.06;53.60;72.57;;
47109;Laerm;32856;51.422;6.794;2023-03-13T04:21:40;62.56;53.93;77.24;;
47109;Laerm;32856;51.422;6.794;2023-03-13T04:24:07;61.33;53.65;75.31;;
47109;Laerm;32856;51.422;6.794;2023-03-13T04:26:36;63.82;53.95;75.96;;
47109;Laerm;32856;51.422;6.794;2023-03-13T04:29:03;59.43;53.79;74.90;;
47109;Laerm;32856;51.422;6.794;2023-03-13T04:31:31;62.13;54.98;77.13;;
47109;Laerm;32856;51.422;6.794;2023-03-13T04:33:59;61.19;53.41;76.61;;
47109;Laerm;32856;51.422;6.794;2023-03-13T04:36:26;62.50;54.29;76.88;;
47109;Laerm;32856;51.422;6.794;2023-03-13T04:38:53;63.25;55.50;76.89;;
47109;Laerm;32856;51.422;6.794;2023-03-13T04:41:20;60.75;53.74;75.28;;
47109;Laerm;32856;51.422;6.794;2023-03-13T04:43:49;65.38;54.14;76.24;;
47109;Laerm;32856;51.422;6.794;2023-03-13T04:46:16;65.12;55.97;80.36;;
47109;Laerm;32856;51.422;6.794;2023-03-13T04:48:44;63.66;54.74;76.81;;
47109;Laerm;32856;51.422;6.794;2023-03-13T04:51:11;63.74;55.42;76.44;;
47109;Laerm;32856;51.422;6.794;2023-03-13T04:53:39;62.78;54.60;75.36;;
47109;Laerm;32856;51.422;6.794;2023-03-13T04:56:06;63.16;54.99;75.51;;
47109;Laerm;32856;51.422;6.794;2023-03-13T04:58:33;65.49;54.07;76.74;;
47109;Laerm;32856;51.422;6.794;2023-03-13T05:01:02;63.37;54.14;75.79;;
47109;Laerm;32856;51.422;6.794;2023-03-13T05:03:29;65.79;54.41;77.91;;
47109;Laerm;32856;51.422;6.794;2023-03-13T05:05:57;61.03;55.06;77.45;;
47109;Laerm;32856;51.422;6.794;2023-03-13T05:08:24;64.30;54.93;78.41;;
47109;Laerm;32856;51.422;6.794;2023-03-13T05:10:51;61.87;55.25;75.60;;
47109;Laerm;32856;51.422;6.794;2023-03-13T05:13:19;63.70;54.91;77.73;;
47109;Laerm;32856;51.422;6.794;2023-03-13T05:15:46;64.58;55.24;80.17;;
47109;Laerm;32856;51.422;6.794;2023-03-13T05:18:15;61.94;55.35;75.81;;
47109;Laerm;32856;51.422;6.794;2023-03-13T05:20:42;65.47;56.01;78.16;;
47109;Laerm;32856;51.422;6.794;2023-03-13T05:23:09;65.27;55.25;81.60;;
47109;Laerm;32856;51.422;6.794;2023-03-13T05:25:37;66.12;55.31;78.09;;
47109;Laerm;32856;51.422;6.794;2023-03-13T05:28:04;63.94;55.59;76.21;;
47109;Laerm;32856;51.422;6.794;2023-03-13T05:30:31;65.72;55.19;80.47;;
47109;Laerm;32856;51.422;6.794;2023-03-13T05:32:59;64.41;56.37;79.17;;
47109;Laerm;32856;51.422;6.794;2023-03-13T05:35:28;64.50;55.26;79.90;;
47109;Laerm;32856;51.422;6.794;2023-03-13T05:37:55;66.76;56.07;81.38;;
47109;Laerm;32856;51.422;6.794;2023-03-13T05:40:22;65.21;56.08;77.91;;
47109;Laerm;32856;51.422;6.794;2023-03-13T05:42:50;63.98;55.52;76.15;;
47109;Laerm;32856;51.422;6.794;2023-03-13T05:45:17;65.82;55.68;79.24;;
47109;Laerm;32856;51.422;6.794;2023-03-13T05:47:44;66.24;54.32;80.69;;
47109;Laerm;32856;51.422;6.794;2023-03-13T05:50:12;64.93;55.15;79.28;;
47109;Laerm;32856;51.422;6.794;2023-03-13T05:52:40;63.86;55.25;78.82;;
47109;Laerm;32856;51.422;6.794;2023-03-13T05:55:08;68.06;56.50;79.44;;
47109;Laerm;32856;51.422;6.794;2023-03-13T05:57:35;64.72;55.45;77.64;;
47109;Laerm;32856;51.422;6.794;2023-03-13T06:00:03;65.75;56.53;77.51;;
47109;Laerm;32856;51.422;6.794;2023-03-13T06:02:30;67.29;55.21;82.35;;
47109;Laerm;32856;51.422;6.794;2023-03-13T06:04:58;67.65;55.89;84.42;;
47109;Laerm;32856;51.422;6.794;2023-03-13T06:07:25;67.10;55.20;80.61;;
47109;Laerm;32856;51.422;6.794;2023-03-13T06:09:54;66.74;56.27;79.83;;
47109;Laerm;32856;51.422;6.794;2023-03-13T06:12:21;64.17;56.19;76.48;;
47109;Laerm;32856;51.422;6.794;2023-03-13T06:14:48;63.74;55.90;76.05;;
47109;Laerm;32856;51.422;6.794;2023-03-13T06:17:16;69.19;56.60;83.24;;
47109;Laerm;32856;51.422;6.794;2023-03-13T06:19:44;65.40;55.48;76.65;;
47109;Laerm;32856;51.422;6.794;2023-03-13T06:22:12;66.99;56.82;77.53;;
47109;Laerm;32856;51.422;6.794;2023-03-13T06:24:39;69.17;57.34;84.73;;
47109;Laerm;32856;51.422;6.794;2023-03-13T06:27:11;66.91;57.08;79.63;;
47109;Laerm;32856;51.422;6.794;2023-03-13T06:29:38;63.88;56.50;75.11;;
47109;Laerm;32856;51.422;6.794;2023-03-13T06:32:05;68.30;55.60;82.24;;
47109;Laerm;32856;51.422;6.794;2023-03-13T06:34:33;69.73;56.47;81.94;;
47109;Laerm;32856;51.422;6.794;2023-03-13T06:37:00;67.69;57.62;77.95;;
47109;Laerm;32856;51.422;6.794;2023-03-13T06:39:28;68.17;55.92;79.81;;
47109;Laerm;32856;51.422;6.794;2023-03-13T06:41:55;67.78;56.97;78.42;;
47109;Laerm;32856;51.422;6.794;2023-03-13T06:44:24;68.19;56.73;80.67;;
47109;Laerm;32856;51.422;6.794;2023-03-13T06:46:51;66.30;57.04;78.29;;
47109;Laerm;32856;51.422;6.794;2023-03-13T06:49:19;66.95;56.94;76.60;;
47109;Laerm;32856;51.422;6.794;2023-03-13T06:51:46;67.94;56.23;83.32;;
47109;Laerm;32856;51.422;6.794;2023-03-13T06:54:13;68.21;57.42;82.32;;
47109;Laerm;32856;51.422;6.794;2023-03-13T06:56:41;67.72;56.12;81.04;;
47109;Laerm;32856;51.422;6.794;2023-03-13T06:59:08;67.99;57.08;76.87;;
47109;Laerm;32856;51.422;6.794;2023-03-13T07:01:37;62.60;55.05;76.35;;
47109;Laerm;32856;51.422;6.794;2023-03-13T07:04:04;68.27;56.51;84.30;;
47109;Laerm;32856;51.422;6.794;2023-03-13T07:06:31;66.17;56.16;76.50;;
47109;Laerm;32856;51.422;6.794;2023-03-13T07:08:59;68.20;57.27;81.34;;
47109;Laerm;32856;51.422;6.794;2023-03-13T07:11:26;64.79;55.66;75.52;;
47109;Laerm;32856;51.422;6.794;2023-03-13T07:13:54;66.58;56.46;77.50;;
47109;Laerm;32856;51.422;6.794;2023-03-13T07:16:41;67.47;56.53;81.65;;
47109;Laerm;32856;51.422;6.794;2023-03-13T07:19:08;66.87;57.04;79.72;;
47109;Laerm;32856;51.422;6.794;2023-03-13T07:21:36;68.44;56.87;84.51;;
47109;Laerm;32856;51.422;6.794;2023-03-13T07:24:03;65.95;57.30;76.81;;
47109;Laerm;32856;51.422;6.794;2023-03-13T07:26:31;69.55;56.53;86.76;;
47109;Laerm;32856;51.422;6.794;2023-03-13T07:28:58;67.31;57.83;77.39;;
47109;Laerm;32856;51.422;6.794;2023-03-13T07:31:26;68.71;57.00;81.17;;
47109;Laerm;32856;51.422;6.794;2023-03-13T07:33:56;67.41;55.98;82.15;;
47109;Laerm;32856;51.422;6.794;2023-03-13T07:36:24;67.21;56.06;78.84;;
47109;Laerm;32856;51.422;6.794;2023-03-13T07:38:51;68.61;56.83;84.19;;
47109;Laerm;32856;51.422;6.794;2023-03-13T07:41:19;64.77;56.21;77.28;;
47109;Laerm;32856;51.422;6.794;2023-03-13T07:43:46;66.80;55.89;76.92;;
47109;Laerm;32856;51.422;6.794;2023-03-13T07:46:14;67.64;57.30;79.05;;
47109;Laerm;32856;51.422;6.794;2023-03-13T07:48:43;66.54;56.32;78.61;;
47109;Laerm;32856;51.422;6.794;2023-03-13T07:51:12;69.56;57.00;84.15;;
47109;Laerm;32856;51.422;6.794;2023-03-13T07:53:40;68.64;56.50;81.94;;
47109;Laerm;32856;51.422;6.794;2023-03-13T07:56:09;68.25;56.05;78.60;;
47109;Laerm;32856;51.422;6.794;2023-03-13T07:58:37;66.26;56.30;75.53;;
47109;Laerm;32856;51.422;6.794;2023-03-13T08:01:08;67.06;54.78;78.52;;
47109;Laerm;32856;51.422;6.794;2023-03-13T08:03:36;66.77;56.18;74.86;;
47109;Laerm;32856;51.422;6.794;2023-03-13T08:06:05;68.11;54.76;79.80;;
47109;Laerm;32856;51.422;6.794;2023-03-13T08:08:35;66.47;56.22;81.17;;
47109;Laerm;32856;51.422;6.794;2023-03-13T08:11:03;64.75;55.22;77.15;;
47109;Laerm;32856;51.422;6.794;2023-03-13T08:13:31;64.34;55.63;77.27;;
47109;Laerm;32856;51.422;6.794;2023-03-13T08:16:02;66.51;56.35;75.69;;
47109;Laerm;32856;51.422;6.794;2023-03-13T08:18:30;63.44;55.47;74.48;;
47109;Laerm;32856;51.422;6.794;2023-03-13T08:21:00;67.55;55.76;80.45;;
47109;Laerm;32856;51.422;6.794;2023-03-13T08:23:28;68.62;56.53;81.03;;
47109;Laerm;32856;51.422;6.794;2023-03-13T08:26:01;67.61;56.44;82.36;;
47109;Laerm;32856;51.422;6.794;2023-03-13T08:28:29;67.52;56.17;87.18;;
47109;Laerm;32856;51.422;6.794;2023-03-13T08:30:56;69.47;54.70;86.55;;
47109;Laerm;32856;51.422;6.794;2023-03-13T08:33:23;65.54;54.71;82.22;;
47109;Laerm;32856;51.422;6.794;2023-03-13T08:35:51;66.63;55.73;80.39;;
47109;Laerm;32856;51.422;6.794;2023-03-13T08:38:18;65.06;55.77;78.99;;
47109;Laerm;32856;51.422;6.794;2023-03-13T08:40:45;66.28;53.89;78.42;;
47109;Laerm;32856;51.422;6.794;2023-03-13T08:43:14;62.95;55.65;75.28;;
47109;Laerm;32856;51.422;6.794;2023-03-13T08:45:41;68.90;56.05;87.24;;
47109;Laerm;32856;51.422;6.794;2023-03-13T08:48:09;67.17;55.68;83.70;;
47109;Laerm;32856;51.422;6.794;2023-03-13T08:50:36;63.76;54.17;76.71;;
47109;Laerm;32856;51.422;6.794;2023-03-13T08:53:03;67.17;55.74;83.02;;
47109;Laerm;32856;51.422;6.794;2023-03-13T08:55:30;68.33;55.28;83.09;;
47109;Laerm;32856;51.422;6.794;2023-03-13T08:57:58;65.52;53.59;77.83;;
47109;Laerm;32856;51.422;6.794;2023-03-13T09:00:26;65.04;54.33;76.64;;
47109;Laerm;32856;51.422;6.794;2023-03-13T09:02:55;60.52;51.34;70.88;;
47109;Laerm;32856;51.422;6.794;2023-03-13T09:05:23;65.36;53.75;79.73;;
47109;Laerm;32856;51.422;6.794;2023-03-13T09:07:50;65.24;54.54;76.41;;
47109;Laerm;32856;51.422;6.794;2023-03-13T09:10:19;68.27;55.19;80.61;;
47109;Laerm;32856;51.422;6.794;2023-03-13T09:12:48;63.05;53.37;76.24;;
47109;Laerm;32856;51.422;6.794;2023-03-13T09:15:16;62.66;55.23;74.32;;
47109;Laerm;32856;51.422;6.794;2023-03-13T09:17:44;66.56;55.31;79.81;;
47109;Laerm;32856;51.422;6.794;2023-03-13T09:20:12;63.23;53.72;79.98;;
47109;Laerm;32856;51.422;6.794;2023-03-13T09:22:40;65.14;54.29;78.35;;
47109;Laerm;32856;51.422;6.794;2023-03-13T09:25:08;64.52;55.65;79.30;;
47109;Laerm;32856;51.422;6.794;2023-03-13T09:27:35;66.87;55.40;80.87;;
47109;Laerm;32856;51.422;6.794;2023-03-13T09:30:03;68.03;52.86;79.90;;
47109;Laerm;32856;51.422;6.794;2023-03-13T09:32:31;63.71;55.27;74.25;;
47109;Laerm;32856;51.422;6.794;2023-03-13T09:34:59;65.21;54.54;77.61;;
47109;Laerm;32856;51.422;6.794;2023-03-13T09:37:27;66.64;55.82;80.31;;
47109;Laerm;32856;51.422;6.794;2023-03-13T09:39:54;64.79;54.29;76.85;;
47109;Laerm;32856;51.422;6.794;2023-03-13T09:42:25;63.37;54.46;74.69;;
47109;Laerm;32856;51.422;6.794;2023-03-13T09:44:58;65.57;54.33;82.23;;
47109;Laerm;32856;51.422;6.794;2023-03-13T09:47:32;63.17;54.89;76.09;;
47109;Laerm;32856;51.422;6.794;2023-03-13T09:50:08;67.51;54.85;80.22;;
47109;Laerm;32856;51.422;6.794;2023-03-13T09:52:38;65.69;54.99;79.86;;
47109;Laerm;32856;51.422;6.794;2023-03-13T09:55:09;65.42;54.82;77.33;;
47109;Laerm;32856;51.422;6.794;2023-03-13T09:57:42;64.86;54.48;75.22;;
47109;Laerm;32856;51.422;6.794;2023-03-13T10:00:13;65.43;54.65;81.70;;
47109;Laerm;32856;51.422;6.794;2023-03-13T10:02:43;62.24;54.55;75.12;;
47109;Laerm;32856;51.422;6.794;2023-03-13T10:05:14;65.62;54.59;78.11;;
47109;Laerm;32856;51.422;6.794;2023-03-13T10:07:42;67.23;55.21;79.85;;
47109;Laerm;32856;51.422;6.794;2023-03-13T10:10:12;69.14;54.99;80.92;;
47109;Laerm;32856;51.422;6.794;2023-03-13T10:12:40;65.35;54.65;79.34;;
47109;Laerm;32856;51.422;6.794;2023-03-13T10:15:22;66.65;55.86;80.44;;
47109;Laerm;32856;51.422;6.794;2023-03-13T10:17:54;64.09;54.54;77.15;;
47109;Laerm;32856;51.422;6.794;2023-03-13T10:20:24;66.59;55.71;77.65;;
47109;Laerm;32856;51.422;6.794;2023-03-13T10:22:53;66.57;54.26;81.58;;
47109;Laerm;32856;51.422;6.794;2023-03-13T10:25:26;65.54;54.04;80.80;;
47109;Laerm;32856;51.422;6.794;2023-03-13T10:27:54;67.33;55.07;83.32;;
47109;Laerm;32856;51.422;6.794;2023-03-13T10:30:22;66.67;53.77;80.36;;
47109;Laerm;32856;51.422;6.794;2023-03-13T10:32:52;63.82;54.23;76.49;;
47109;Laerm;32856;51.422;6.794;2023-03-13T10:35:21;61.98;53.67;74.83;;
47109;Laerm;32856;51.422;6.794;2023-03-13T10:37:50;66.40;54.16;83.46;;
47109;Laerm;32856;51.422;6.794;2023-03-13T10:40:27;65.75;55.13;79.64;;
47109;Laerm;32856;51.422;6.794;2023-03-13T10:42:58;65.20;54.82;80.32;;
47109;Laerm;32856;51.422;6.794;2023-03-13T10:45:28;65.98;55.53;77.58;;
47109;Laerm;32856;51.422;6.794;2023-03-13T10:47:59;63.89;54.07;82.98;;
47109;Laerm;32856;51.422;6.794;2023-03-13T10:50:27;65.04;55.48;75.48;;
47109;Laerm;32856;51.422;6.794;2023-03-13T10:52:59;69.76;57.71;84.31;;
47109;Laerm;32856;51.422;6.794;2023-03-13T10:55:33;66.20;54.30;82.07;;
47109;Laerm;32856;51.422;6.794;2023-03-13T10:58:01;66.18;54.80;77.67;;
47109;Laerm;32856;51.422;6.794;2023-03-13T11:00:32;66.34;55.61;80.92;;
47109;Laerm;32856;51.422;6.794;2023-03-13T11:03:00;66.47;54.76;81.42;;
47109;Laerm;32856;51.422;6.794;2023-03-13T11:05:29;64.11;54.36;75.79;;
47109;Laerm;32856;51.422;6.794;2023-03-13T11:07:57;65.12;54.89;78.95;;
47109;Laerm;32856;51.422;6.794;2023-03-13T11:10:38;66.06;54.58;75.70;;
47109;Laerm;32856;51.422;6.794;2023-03-13T11:13:25;62.98;53.17;76.71;;
47109;Laerm;32856;51.422;6.794;2023-03-13T11:16:05;64.37;54.22;76.74;;
47109;Laerm;32856;51.422;6.794;2023-03-13T11:18:38;66.00;55.94;79.89;;
47109;Laerm;32856;51.422;6.794;2023-03-13T11:21:08;65.61;54.65;77.01;;
47109;Laerm;32856;51.422;6.794;2023-03-13T11:23:44;63.72;54.02;75.82;;
47109;Laerm;32856;51.422;6.794;2023-03-13T11:26:15;64.39;54.73;77.08;;
47109;Laerm;32856;51.422;6.794;2023-03-13T11:28:48;65.64;55.56;82.95;;
47109;Laerm;32856;51.422;6.794;2023-03-13T11:31:18;63.97;54.55;76.65;;
47109;Laerm;32856;51.422;6.794;2023-03-13T11:33:47;64.20;53.99;73.54;;
47109;Laerm;32856;51.422;6.794;2023-03-13T11:36:25;62.93;53.64;78.73;;
47109;Laerm;32856;51.422;6.794;2023-03-13T11:38:57;65.64;54.17;78.60;;
47109;Laerm;32856;51.422;6.794;2023-03-13T11:41:43;65.14;54.98;84.84;;
47109;Laerm;32856;51.422;6.794;2023-03-13T11:44:15;63.26;54.82;74.38;;
47109;Laerm;32856;51.422;6.794;2023-03-13T11:46:48;63.57;54.66;81.47;;
47109;Laerm;32856;51.422;6.794;2023-03-13T11:49:23;68.72;56.07;88.54;;
47109;Laerm;32856;51.422;6.794;2023-03-13T11:51:55;65.71;56.00;77.33;;
47109;Laerm;32856;51.422;6.794;2023-03-13T11:54:33;65.89;57.07;83.88;;
47109;Laerm;32856;51.422;6.794;2023-03-13T11:57:06;65.32;57.44;86.35;;
47109;Laerm;32856;51.422;6.794;2023-03-13T11:59:40;65.45;56.65;81.27;;
47109;Laerm;32856;51.422;6.794;2023-03-13T12:02:14;65.99;56.83;79.45;;
47109;Laerm;32856;51.422;6.794;2023-03-13T12:04:44;67.71;56.41;80.99;;
47109;Laerm;32856;51.422;6.794;2023-03-13T12:07:16;64.72;55.05;74.29;;
47109;Laerm;32856;51.422;6.794;2023-03-13T12:09:46;63.74;54.27;74.14;;
47109;Laerm;32856;51.422;6.794;2023-03-13T12:12:19;65.62;55.39;78.10;;
47109;Laerm;32856;51.422;6.794;2023-03-13T12:14:51;65.21;53.53;75.22;;
47109;Laerm;32856;51.422;6.794;2023-03-13T12:17:21;64.51;54.54;74.97;;
47109;Laerm;32856;51.422;6.794;2023-03-13T12:19:52;66.57;54.07;81.63;;
47109;Laerm;32856;51.422;6.794;2023-03-13T12:22:22;63.39;54.88;78.19;;
47109;Laerm;32856;51.422;6.794;2023-03-13T12:24:53;68.36;56.38;91.96;;
47109;Laerm;32856;51.422;6.794;2023-03-13T12:27:23;68.20;55.76;85.78;;
47109;Laerm;32856;51.422;6.794;2023-03-13T12:29:57;66.18;54.30;78.67;;
47109;Laerm;32856;51.422;6.794;2023-03-13T12:32:28;65.43;54.54;88.68;;
47109;Laerm;32856;51.422;6.794;2023-03-13T12:34:59;65.45;53.51;81.62;;
47109;Laerm;32856;51.422;6.794;2023-03-13T12:37:33;65.24;54.34;77.87;;
47109;Laerm;32856;51.422;6.794;2023-03-13T12:40:05;63.94;53.70;79.23;;
47109;Laerm;32856;51.422;6.794;2023-03-13T12:42:41;64.91;54.32;76.78;;
47109;Laerm;32856;51.422;6.794;2023-03-13T12:45:11;65.15;54.02;75.81;;
47109;Laerm;32856;51.422;6.794;2023-03-13T12:47:48;66.89;55.75;82.71;;
47109;Laerm;32856;51.422;6.794;2023-03-13T12:50:26;64.35;54.11;75.09;;
47109;Laerm;32856;51.422;6.794;2023-03-13T12:53:21;64.92;56.23;79.52;;
47109;Laerm;32856;51.422;6.794;2023-03-13T12:55:54;67.27;56.14;82.49;;
47109;Laerm;32856;51.422;6.794;2023-03-13T12:58:36;66.19;56.55;81.12;;
47109;Laerm;32856;51.422;6.794;2023-03-13T13:01:04;64.85;54.27;83.39;;
47109;Laerm;32856;51.422;6.794;2023-03-13T13:03:33;64.95;55.97;73.99;;
47109;Laerm;32856;51.422;6.794;2023-03-13T13:06:04;65.90;57.02;79.84;;
47109;Laerm;32856;51.422;6.794;2023-03-13T13:08:33;63.72;54.80;80.19;;
47109;Laerm;32856;51.422;6.794;2023-03-13T13:13:50;66.28;56.18;79.34;;
47109;Laerm;32856;51.422;6.794;2023-03-13T13:16:18;66.31;55.66;77.31;;
47109;Laerm;32856;51.422;6.794;2023-03-13T13:18:47;66.58;56.66;77.90;;
47109;Laerm;32856;51.422;6.794;2023-03-13T13:21:18;64.30;53.91;77.25;;
47109;Laerm;32856;51.422;6.794;2023-03-13T13:23:46;65.99;54.38;76.17;;
47109;Laerm;32856;51.422;6.794;2023-03-13T13:32:13;65.54;55.62;81.77;;
47109;Laerm;32856;51.422;6.794;2023-03-13T13:34:54;63.88;56.73;78.40;;
47109;Laerm;32856;51.422;6.794;2023-03-13T13:37:25;65.60;56.03;75.31;;
47109;Laerm;32856;51.422;6.794;2023-03-13T13:39:55;67.27;57.35;77.78;;
47109;Laerm;32856;51.422;6.794;2023-03-13T13:42:36;64.74;55.67;74.40;;
47109;Laerm;32856;51.422;6.794;2023-03-13T13:45:17;67.71;55.27;82.84;;
47109;Laerm;32856;51.422;6.794;2023-03-13T13:47:48;69.12;53.58;86.09;;
47109;Laerm;32856;51.422;6.794;2023-03-13T13:50:17;67.04;57.96;81.43;;
47109;Laerm;32856;51.422;6.794;2023-03-13T13:52:44;66.35;57.06;78.65;;
47109;Laerm;32856;51.422;6.794;2023-03-13T13:55:29;67.64;55.21;81.11;;
47109;Laerm;32856;51.422;6.794;2023-03-13T13:58:00;65.05;54.03;74.97;;
47109;Laerm;32856;51.422;6.794;2023-03-13T14:00:34;63.91;52.90;79.37;;
47109;Laerm;32856;51.422;6.794;2023-03-13T14:03:13;66.35;54.90;79.29;;
47109;Laerm;32856;51.422;6.794;2023-03-13T14:05:42;65.12;53.37;76.12;;